Terminal Aerodrome Forecast
Issued by NWS Burlington, VT

Home | Current Version | Previous Version | Text Only | Print | Product List | Glossary On
Versions: 1 2 3 4 5 6 7 8 9 10 11 12
227
FTUS41 KBTV 241120
TAFBTV
TAF
KBTV 241120Z 2412/2512 15015G27KT P6SM BKN060
     FM241500 15018G35KT P6SM VCSH BKN040
     FM241800 16017G32KT 6SM -SHRA BR OVC035
     FM242000 17017G29KT 3SM +SHRA BR OVC028
     FM250000 18010G18KT P6SM -SHRA OVC015
     FM250600 18005KT P6SM OVC035=

USA.gov is the U.S. government's official web portal to all federal, state and local government web resources and services.